sensor_id;sensor_type;location;lat;lon;timestamp;P1;durP1;ratioP1;P2;durP2;ratioP2
34060;SDS011;20336;-33.424;-70.638;2023-08-17T00:01:43;18.98;;;9.43;;
34060;SDS011;20336;-33.424;-70.638;2023-08-17T00:04:10;20.13;;;9.23;;
34060;SDS011;20336;-33.424;-70.638;2023-08-17T00:06:37;17.50;;;9.57;;
34060;SDS011;20336;-33.424;-70.638;2023-08-17T00:09:04;17.67;;;9.73;;
34060;SDS011;20336;-33.424;-70.638;2023-08-17T00:11:32;22.25;;;10.32;;
34060;SDS011;20336;-33.424;-70.638;2023-08-17T00:13:59;16.52;;;9.45;;
34060;SDS011;20336;-33.424;-70.638;2023-08-17T00:16:26;24.55;;;9.20;;
34060;SDS011;20336;-33.424;-70.638;2023-08-17T00:18:53;15.90;;;8.90;;
34060;SDS011;20336;-33.424;-70.638;2023-08-17T00:21:20;21.23;;;9.18;;
34060;SDS011;20336;-33.424;-70.638;2023-08-17T00:23:47;19.35;;;8.90;;
34060;SDS011;20336;-33.424;-70.638;2023-08-17T00:26:14;17.48;;;8.95;;
34060;SDS011;20336;-33.424;-70.638;2023-08-17T00:28:41;13.38;;;8.48;;
34060;SDS011;20336;-33.424;-70.638;2023-08-17T00:31:08;14.25;;;8.43;;
34060;SDS011;20336;-33.424;-70.638;2023-08-17T00:33:35;18.08;;;9.15;;
34060;SDS011;20336;-33.424;-70.638;2023-08-17T00:36:02;16.40;;;9.02;;
34060;SDS011;20336;-33.424;-70.638;2023-08-17T00:38:29;17.25;;;8.68;;
34060;SDS011;20336;-33.424;-70.638;2023-08-17T00:40:55;15.25;;;9.25;;
34060;SDS011;20336;-33.424;-70.638;2023-08-17T00:43:22;15.48;;;9.15;;
34060;SDS011;20336;-33.424;-70.638;2023-08-17T00:45:49;13.60;;;8.95;;
34060;SDS011;20336;-33.424;-70.638;2023-08-17T00:48:16;16.80;;;9.33;;
34060;SDS011;20336;-33.424;-70.638;2023-08-17T00:50:44;14.95;;;8.55;;
34060;SDS011;20336;-33.424;-70.638;2023-08-17T00:53:14;15.93;;;8.90;;
34060;SDS011;20336;-33.424;-70.638;2023-08-17T00:55:42;14.73;;;8.55;;
34060;SDS011;20336;-33.424;-70.638;2023-08-17T00:58:09;17.70;;;9.07;;
34060;SDS011;20336;-33.424;-70.638;2023-08-17T01:00:36;19.90;;;9.48;;
34060;SDS011;20336;-33.424;-70.638;2023-08-17T01:03:03;17.65;;;10.32;;
34060;SDS011;20336;-33.424;-70.638;2023-08-17T01:05:30;21.53;;;11.03;;
34060;SDS011;20336;-33.424;-70.638;2023-08-17T01:07:58;21.30;;;10.88;;
34060;SDS011;20336;-33.424;-70.638;2023-08-17T01:10:31;25.25;;;13.27;;
34060;SDS011;20336;-33.424;-70.638;2023-08-17T01:13:11;23.40;;;12.10;;
34060;SDS011;20336;-33.424;-70.638;2023-08-17T01:15:48;21.60;;;12.10;;
34060;SDS011;20336;-33.424;-70.638;2023-08-17T01:18:23;22.85;;;11.48;;
34060;SDS011;20336;-33.424;-70.638;2023-08-17T01:20:56;19.88;;;11.52;;
34060;SDS011;20336;-33.424;-70.638;2023-08-17T01:23:23;19.58;;;10.77;;
34060;SDS011;20336;-33.424;-70.638;2023-08-17T01:25:50;19.45;;;11.07;;
34060;SDS011;20336;-33.424;-70.638;2023-08-17T01:28:19;22.35;;;11.85;;
34060;SDS011;20336;-33.424;-70.638;2023-08-17T01:31:31;20.05;;;10.75;;
34060;SDS011;20336;-33.424;-70.638;2023-08-17T01:33:58;20.08;;;10.45;;
34060;SDS011;20336;-33.424;-70.638;2023-08-17T01:36:37;19.02;;;10.60;;
34060;SDS011;20336;-33.424;-70.638;2023-08-17T01:39:09;17.52;;;9.88;;
34060;SDS011;20336;-33.424;-70.638;2023-08-17T01:41:37;19.83;;;10.20;;
34060;SDS011;20336;-33.424;-70.638;2023-08-17T01:44:07;19.40;;;10.40;;
34060;SDS011;20336;-33.424;-70.638;2023-08-17T01:46:34;17.03;;;9.60;;
34060;SDS011;20336;-33.424;-70.638;2023-08-17T01:49:01;21.70;;;11.27;;
34060;SDS011;20336;-33.424;-70.638;2023-08-17T01:51:28;24.97;;;12.87;;
34060;SDS011;20336;-33.424;-70.638;2023-08-17T01:53:55;25.37;;;12.60;;
34060;SDS011;20336;-33.424;-70.638;2023-08-17T01:56:22;21.92;;;11.75;;
34060;SDS011;20336;-33.424;-70.638;2023-08-17T01:58:49;26.65;;;12.85;;
34060;SDS011;20336;-33.424;-70.638;2023-08-17T02:01:15;25.55;;;12.02;;
34060;SDS011;20336;-33.424;-70.638;2023-08-17T02:03:42;19.55;;;11.23;;
34060;SDS011;20336;-33.424;-70.638;2023-08-17T02:06:09;23.15;;;11.35;;
34060;SDS011;20336;-33.424;-70.638;2023-08-17T02:08:37;20.55;;;11.43;;
34060;SDS011;20336;-33.424;-70.638;2023-08-17T02:11:04;22.85;;;10.93;;
34060;SDS011;20336;-33.424;-70.638;2023-08-17T02:13:31;20.77;;;10.93;;
34060;SDS011;20336;-33.424;-70.638;2023-08-17T02:15:58;20.98;;;11.32;;
34060;SDS011;20336;-33.424;-70.638;2023-08-17T02:18:25;21.98;;;11.77;;
34060;SDS011;20336;-33.424;-70.638;2023-08-17T02:20:54;27.30;;;13.10;;
34060;SDS011;20336;-33.424;-70.638;2023-08-17T02:23:21;21.77;;;12.35;;
34060;SDS011;20336;-33.424;-70.638;2023-08-17T02:25:47;26.75;;;17.33;;
34060;SDS011;20336;-33.424;-70.638;2023-08-17T02:28:14;28.83;;;18.42;;
34060;SDS011;20336;-33.424;-70.638;2023-08-17T02:30:41;26.92;;;14.57;;
34060;SDS011;20336;-33.424;-70.638;2023-08-17T02:33:09;30.30;;;14.88;;
34060;SDS011;20336;-33.424;-70.638;2023-08-17T02:35:35;22.38;;;11.63;;
34060;SDS011;20336;-33.424;-70.638;2023-08-17T02:38:02;22.35;;;12.15;;
34060;SDS011;20336;-33.424;-70.638;2023-08-17T02:40:29;21.27;;;11.10;;
34060;SDS011;20336;-33.424;-70.638;2023-08-17T02:42:56;23.42;;;12.73;;
34060;SDS011;20336;-33.424;-70.638;2023-08-17T02:45:23;24.02;;;11.88;;
34060;SDS011;20336;-33.424;-70.638;2023-08-17T02:47:50;22.25;;;11.50;;
34060;SDS011;20336;-33.424;-70.638;2023-08-17T02:50:16;19.98;;;10.80;;
34060;SDS011;20336;-33.424;-70.638;2023-08-17T02:52:43;25.00;;;12.13;;
34060;SDS011;20336;-33.424;-70.638;2023-08-17T02:55:10;25.65;;;12.18;;
34060;SDS011;20336;-33.424;-70.638;2023-08-17T02:57:37;19.90;;;10.95;;
34060;SDS011;20336;-33.424;-70.638;2023-08-17T03:00:04;20.10;;;11.27;;
34060;SDS011;20336;-33.424;-70.638;2023-08-17T03:02:31;20.10;;;11.13;;
34060;SDS011;20336;-33.424;-70.638;2023-08-17T03:04:58;22.87;;;11.33;;
34060;SDS011;20336;-33.424;-70.638;2023-08-17T03:07:25;21.92;;;11.95;;
34060;SDS011;20336;-33.424;-70.638;2023-08-17T03:09:52;22.95;;;13.13;;
34060;SDS011;20336;-33.424;-70.638;2023-08-17T03:12:18;23.93;;;12.70;;
34060;SDS011;20336;-33.424;-70.638;2023-08-17T03:14:45;17.20;;;11.73;;
34060;SDS011;20336;-33.424;-70.638;2023-08-17T03:17:12;18.87;;;12.23;;
34060;SDS011;20336;-33.424;-70.638;2023-08-17T03:19:39;23.57;;;12.00;;
34060;SDS011;20336;-33.424;-70.638;2023-08-17T03:22:06;20.75;;;11.60;;
34060;SDS011;20336;-33.424;-70.638;2023-08-17T03:24:33;18.63;;;12.07;;
34060;SDS011;20336;-33.424;-70.638;2023-08-17T03:27:00;20.00;;;11.37;;
34060;SDS011;20336;-33.424;-70.638;2023-08-17T03:29:27;21.53;;;11.77;;
34060;SDS011;20336;-33.424;-70.638;2023-08-17T03:31:53;20.52;;;11.80;;
34060;SDS011;20336;-33.424;-70.638;2023-08-17T03:34:20;20.48;;;11.63;;
34060;SDS011;20336;-33.424;-70.638;2023-08-17T03:36:47;24.43;;;12.27;;
34060;SDS011;20336;-33.424;-70.638;2023-08-17T03:39:14;20.58;;;12.40;;
34060;SDS011;20336;-33.424;-70.638;2023-08-17T03:41:41;20.48;;;12.30;;
34060;SDS011;20336;-33.424;-70.638;2023-08-17T03:44:08;20.90;;;11.88;;
34060;SDS011;20336;-33.424;-70.638;2023-08-17T03:46:35;21.30;;;11.77;;
34060;SDS011;20336;-33.424;-70.638;2023-08-17T03:49:02;18.10;;;11.48;;
34060;SDS011;20336;-33.424;-70.638;2023-08-17T03:51:29;19.27;;;11.18;;
34060;SDS011;20336;-33.424;-70.638;2023-08-17T03:53:58;29.63;;;16.13;;
34060;SDS011;20336;-33.424;-70.638;2023-08-17T03:56:24;20.15;;;11.10;;
34060;SDS011;20336;-33.424;-70.638;2023-08-17T03:58:52;24.50;;;11.63;;
34060;SDS011;20336;-33.424;-70.638;2023-08-17T04:01:22;22.63;;;12.77;;
34060;SDS011;20336;-33.424;-70.638;2023-08-17T04:03:49;22.35;;;12.82;;
34060;SDS011;20336;-33.424;-70.638;2023-08-17T04:06:16;36.35;;;13.65;;
34060;SDS011;20336;-33.424;-70.638;2023-08-17T04:08:43;22.25;;;12.40;;
34060;SDS011;20336;-33.424;-70.638;2023-08-17T04:11:11;16.63;;;11.75;;
34060;SDS011;20336;-33.424;-70.638;2023-08-17T04:13:38;21.08;;;12.32;;
34060;SDS011;20336;-33.424;-70.638;2023-08-17T04:16:04;18.52;;;11.32;;
34060;SDS011;20336;-33.424;-70.638;2023-08-17T04:18:31;18.70;;;11.30;;
34060;SDS011;20336;-33.424;-70.638;2023-08-17T04:20:58;20.83;;;11.18;;
34060;SDS011;20336;-33.424;-70.638;2023-08-17T04:23:25;19.98;;;11.82;;
34060;SDS011;20336;-33.424;-70.638;2023-08-17T04:25:52;19.52;;;11.50;;
34060;SDS011;20336;-33.424;-70.638;2023-08-17T04:28:20;20.55;;;11.82;;
34060;SDS011;20336;-33.424;-70.638;2023-08-17T04:30:47;19.30;;;10.68;;
34060;SDS011;20336;-33.424;-70.638;2023-08-17T04:33:14;21.38;;;11.73;;
34060;SDS011;20336;-33.424;-70.638;2023-08-17T04:35:42;19.88;;;11.40;;
34060;SDS011;20336;-33.424;-70.638;2023-08-17T04:38:11;24.30;;;12.05;;
34060;SDS011;20336;-33.424;-70.638;2023-08-17T04:40:38;20.55;;;12.07;;
34060;SDS011;20336;-33.424;-70.638;2023-08-17T04:43:05;22.02;;;13.02;;
34060;SDS011;20336;-33.424;-70.638;2023-08-17T04:45:32;19.85;;;12.30;;
34060;SDS011;20336;-33.424;-70.638;2023-08-17T04:47:59;20.63;;;13.70;;
34060;SDS011;20336;-33.424;-70.638;2023-08-17T04:50:26;24.20;;;14.02;;
34060;SDS011;20336;-33.424;-70.638;2023-08-17T04:52:52;22.65;;;14.65;;
34060;SDS011;20336;-33.424;-70.638;2023-08-17T04:55:19;23.60;;;14.35;;
34060;SDS011;20336;-33.424;-70.638;2023-08-17T04:57:46;28.60;;;15.77;;
34060;SDS011;20336;-33.424;-70.638;2023-08-17T05:00:14;25.65;;;14.38;;
34060;SDS011;20336;-33.424;-70.638;2023-08-17T05:02:42;23.83;;;14.13;;
34060;SDS011;20336;-33.424;-70.638;2023-08-17T05:05:09;24.43;;;14.00;;
34060;SDS011;20336;-33.424;-70.638;2023-08-17T05:07:36;22.77;;;14.07;;
34060;SDS011;20336;-33.424;-70.638;2023-08-17T05:10:03;22.57;;;13.57;;
34060;SDS011;20336;-33.424;-70.638;2023-08-17T05:12:30;25.93;;;14.63;;
34060;SDS011;20336;-33.424;-70.638;2023-08-17T05:14:57;24.67;;;14.88;;
34060;SDS011;20336;-33.424;-70.638;2023-08-17T05:17:24;23.63;;;14.07;;
34060;SDS011;20336;-33.424;-70.638;2023-08-17T05:19:51;27.13;;;14.05;;
34060;SDS011;20336;-33.424;-70.638;2023-08-17T05:22:17;23.98;;;13.45;;
34060;SDS011;20336;-33.424;-70.638;2023-08-17T05:24:44;26.73;;;14.40;;
34060;SDS011;20336;-33.424;-70.638;2023-08-17T05:27:11;24.13;;;14.07;;
34060;SDS011;20336;-33.424;-70.638;2023-08-17T05:29:38;22.02;;;12.32;;
34060;SDS011;20336;-33.424;-70.638;2023-08-17T05:32:05;19.00;;;12.60;;
34060;SDS011;20336;-33.424;-70.638;2023-08-17T05:34:32;20.27;;;12.97;;
34060;SDS011;20336;-33.424;-70.638;2023-08-17T05:37:06;22.87;;;13.60;;
34060;SDS011;20336;-33.424;-70.638;2023-08-17T05:39:33;22.75;;;12.25;;
34060;SDS011;20336;-33.424;-70.638;2023-08-17T05:42:00;20.30;;;13.20;;
34060;SDS011;20336;-33.424;-70.638;2023-08-17T05:44:27;19.63;;;12.80;;
34060;SDS011;20336;-33.424;-70.638;2023-08-17T05:46:54;19.73;;;12.13;;
34060;SDS011;20336;-33.424;-70.638;2023-08-17T05:49:21;21.53;;;13.33;;
34060;SDS011;20336;-33.424;-70.638;2023-08-17T05:51:47;20.20;;;12.33;;
34060;SDS011;20336;-33.424;-70.638;2023-08-17T05:54:14;20.67;;;12.17;;
34060;SDS011;20336;-33.424;-70.638;2023-08-17T05:56:41;19.53;;;12.37;;
34060;SDS011;20336;-33.424;-70.638;2023-08-17T05:59:12;20.97;;;12.60;;
34060;SDS011;20336;-33.424;-70.638;2023-08-17T06:01:39;21.17;;;13.03;;
34060;SDS011;20336;-33.424;-70.638;2023-08-17T06:04:06;24.47;;;13.57;;
34060;SDS011;20336;-33.424;-70.638;2023-08-17T06:06:33;25.33;;;13.10;;
34060;SDS011;20336;-33.424;-70.638;2023-08-17T06:09:03;25.63;;;13.20;;
34060;SDS011;20336;-33.424;-70.638;2023-08-17T06:11:30;25.03;;;13.20;;
34060;SDS011;20336;-33.424;-70.638;2023-08-17T06:13:56;20.63;;;12.73;;
34060;SDS011;20336;-33.424;-70.638;2023-08-17T06:16:23;19.40;;;12.87;;
34060;SDS011;20336;-33.424;-70.638;2023-08-17T06:18:50;23.27;;;13.23;;
34060;SDS011;20336;-33.424;-70.638;2023-08-17T06:21:17;19.80;;;12.03;;
34060;SDS011;20336;-33.424;-70.638;2023-08-17T06:23:44;22.53;;;12.97;;
34060;SDS011;20336;-33.424;-70.638;2023-08-17T06:26:11;21.60;;;12.80;;
34060;SDS011;20336;-33.424;-70.638;2023-08-17T06:28:37;22.53;;;12.57;;
34060;SDS011;20336;-33.424;-70.638;2023-08-17T06:31:05;28.60;;;14.00;;
34060;SDS011;20336;-33.424;-70.638;2023-08-17T06:33:32;21.23;;;13.07;;
34060;SDS011;20336;-33.424;-70.638;2023-08-17T06:35:59;26.42;;;13.98;;
34060;SDS011;20336;-33.424;-70.638;2023-08-17T06:38:26;20.50;;;13.33;;
34060;SDS011;20336;-33.424;-70.638;2023-08-17T06:40:53;26.75;;;14.20;;
34060;SDS011;20336;-33.424;-70.638;2023-08-17T06:43:19;21.65;;;13.23;;
34060;SDS011;20336;-33.424;-70.638;2023-08-17T06:45:46;24.37;;;13.10;;
34060;SDS011;20336;-33.424;-70.638;2023-08-17T06:48:13;21.02;;;13.10;;
34060;SDS011;20336;-33.424;-70.638;2023-08-17T06:50:40;21.52;;;12.80;;
34060;SDS011;20336;-33.424;-70.638;2023-08-17T06:53:07;22.13;;;13.03;;
34060;SDS011;20336;-33.424;-70.638;2023-08-17T06:55:34;21.58;;;12.38;;
34060;SDS011;20336;-33.424;-70.638;2023-08-17T06:58:01;20.85;;;12.85;;
34060;SDS011;20336;-33.424;-70.638;2023-08-17T07:00:27;20.50;;;12.30;;
34060;SDS011;20336;-33.424;-70.638;2023-08-17T07:02:54;24.30;;;12.77;;
34060;SDS011;20336;-33.424;-70.638;2023-08-17T07:05:21;24.97;;;13.03;;
34060;SDS011;20336;-33.424;-70.638;2023-08-17T07:07:49;20.30;;;12.77;;
34060;SDS011;20336;-33.424;-70.638;2023-08-17T07:10:16;22.10;;;12.73;;
34060;SDS011;20336;-33.424;-70.638;2023-08-17T07:12:42;20.10;;;12.33;;
34060;SDS011;20336;-33.424;-70.638;2023-08-17T07:15:09;23.70;;;12.90;;
34060;SDS011;20336;-33.424;-70.638;2023-08-17T07:17:36;25.93;;;13.87;;
34060;SDS011;20336;-33.424;-70.638;2023-08-17T07:20:04;22.37;;;13.10;;
34060;SDS011;20336;-33.424;-70.638;2023-08-17T07:22:33;22.00;;;13.57;;
34060;SDS011;20336;-33.424;-70.638;2023-08-17T07:25:00;29.90;;;16.50;;
34060;SDS011;20336;-33.424;-70.638;2023-08-17T07:27:27;27.03;;;17.40;;
34060;SDS011;20336;-33.424;-70.638;2023-08-17T07:29:54;28.47;;;16.40;;
34060;SDS011;20336;-33.424;-70.638;2023-08-17T07:32:21;24.33;;;16.03;;
34060;SDS011;20336;-33.424;-70.638;2023-08-17T07:34:49;25.33;;;15.30;;
34060;SDS011;20336;-33.424;-70.638;2023-08-17T07:37:15;25.47;;;16.80;;
34060;SDS011;20336;-33.424;-70.638;2023-08-17T07:39:42;23.97;;;15.10;;
34060;SDS011;20336;-33.424;-70.638;2023-08-17T07:42:09;22.53;;;14.73;;
34060;SDS011;20336;-33.424;-70.638;2023-08-17T07:44:36;25.80;;;15.37;;
34060;SDS011;20336;-33.424;-70.638;2023-08-17T07:47:05;21.53;;;14.57;;
34060;SDS011;20336;-33.424;-70.638;2023-08-17T07:49:32;24.03;;;16.03;;
34060;SDS011;20336;-33.424;-70.638;2023-08-17T07:51:58;22.42;;;14.95;;
34060;SDS011;20336;-33.424;-70.638;2023-08-17T07:54:25;21.73;;;14.60;;
34060;SDS011;20336;-33.424;-70.638;2023-08-17T07:56:52;24.53;;;15.17;;
34060;SDS011;20336;-33.424;-70.638;2023-08-17T07:59:19;22.97;;;14.33;;
34060;SDS011;20336;-33.424;-70.638;2023-08-17T08:01:46;24.57;;;14.73;;
34060;SDS011;20336;-33.424;-70.638;2023-08-17T08:04:13;22.77;;;14.20;;
34060;SDS011;20336;-33.424;-70.638;2023-08-17T08:06:39;22.00;;;14.37;;
34060;SDS011;20336;-33.424;-70.638;2023-08-17T08:09:06;24.03;;;14.00;;
34060;SDS011;20336;-33.424;-70.638;2023-08-17T08:11:33;23.33;;;14.40;;
34060;SDS011;20336;-33.424;-70.638;2023-08-17T08:14:00;26.70;;;14.07;;
34060;SDS011;20336;-33.424;-70.638;2023-08-17T08:16:27;23.67;;;13.53;;
34060;SDS011;20336;-33.424;-70.638;2023-08-17T08:18:57;21.40;;;13.33;;
34060;SDS011;20336;-33.424;-70.638;2023-08-17T08:21:24;21.23;;;13.97;;
34060;SDS011;20336;-33.424;-70.638;2023-08-17T08:23:53;23.17;;;13.47;;
34060;SDS011;20336;-33.424;-70.638;2023-08-17T08:26:19;25.42;;;14.25;;
34060;SDS011;20336;-33.424;-70.638;2023-08-17T08:28:46;21.27;;;13.90;;
34060;SDS011;20336;-33.424;-70.638;2023-08-17T08:31:13;23.73;;;13.27;;
34060;SDS011;20336;-33.424;-70.638;2023-08-17T08:33:40;23.85;;;13.82;;
34060;SDS011;20336;-33.424;-70.638;2023-08-17T08:36:07;23.67;;;13.97;;
34060;SDS011;20336;-33.424;-70.638;2023-08-17T08:38:33;20.73;;;12.25;;
34060;SDS011;20336;-33.424;-70.638;2023-08-17T08:41:01;20.42;;;12.60;;
34060;SDS011;20336;-33.424;-70.638;2023-08-17T08:43:28;20.88;;;12.90;;
34060;SDS011;20336;-33.424;-70.638;2023-08-17T08:45:56;24.17;;;13.07;;
34060;SDS011;20336;-33.424;-70.638;2023-08-17T08:48:26;23.90;;;13.70;;
34060;SDS011;20336;-33.424;-70.638;2023-08-17T08:50:54;22.23;;;14.00;;
34060;SDS011;20336;-33.424;-70.638;2023-08-17T08:53:29;22.25;;;13.23;;
34060;SDS011;20336;-33.424;-70.638;2023-08-17T08:56:01;23.13;;;12.50;;
34060;SDS011;20336;-33.424;-70.638;2023-08-17T08:58:29;21.05;;;13.55;;
34060;SDS011;20336;-33.424;-70.638;2023-08-17T09:00:57;23.40;;;13.98;;
34060;SDS011;20336;-33.424;-70.638;2023-08-17T09:03:26;22.02;;;13.15;;
34060;SDS011;20336;-33.424;-70.638;2023-08-17T09:05:54;18.50;;;12.73;;
34060;SDS011;20336;-33.424;-70.638;2023-08-17T09:08:27;23.58;;;14.60;;
34060;SDS011;20336;-33.424;-70.638;2023-08-17T09:10:55;22.23;;;13.73;;
34060;SDS011;20336;-33.424;-70.638;2023-08-17T09:13:22;24.55;;;13.70;;
34060;SDS011;20336;-33.424;-70.638;2023-08-17T09:15:49;26.50;;;14.27;;
34060;SDS011;20336;-33.424;-70.638;2023-08-17T09:18:16;20.83;;;13.07;;
34060;SDS011;20336;-33.424;-70.638;2023-08-17T09:20:44;21.60;;;13.45;;
34060;SDS011;20336;-33.424;-70.638;2023-08-17T09:23:13;21.67;;;12.90;;
34060;SDS011;20336;-33.424;-70.638;2023-08-17T09:25:41;21.33;;;13.73;;
34060;SDS011;20336;-33.424;-70.638;2023-08-17T09:28:10;24.00;;;13.75;;
34060;SDS011;20336;-33.424;-70.638;2023-08-17T09:33:18;21.38;;;13.68;;
34060;SDS011;20336;-33.424;-70.638;2023-08-17T09:35:46;20.42;;;13.23;;
34060;SDS011;20336;-33.424;-70.638;2023-08-17T09:38:15;21.33;;;14.07;;
34060;SDS011;20336;-33.424;-70.638;2023-08-17T09:40:42;23.65;;;14.05;;
34060;SDS011;20336;-33.424;-70.638;2023-08-17T09:43:10;23.98;;;14.00;;
34060;SDS011;20336;-33.424;-70.638;2023-08-17T09:45:37;21.02;;;13.85;;
34060;SDS011;20336;-33.424;-70.638;2023-08-17T09:48:05;23.98;;;13.93;;
34060;SDS011;20336;-33.424;-70.638;2023-08-17T09:50:35;22.53;;;14.27;;
34060;SDS011;20336;-33.424;-70.638;2023-08-17T09:53:02;23.30;;;13.60;;
34060;SDS011;20336;-33.424;-70.638;2023-08-17T09:55:30;26.52;;;14.75;;
34060;SDS011;20336;-33.424;-70.638;2023-08-17T09:58:00;22.80;;;14.60;;
34060;SDS011;20336;-33.424;-70.638;2023-08-17T10:00:28;23.57;;;14.30;;
34060;SDS011;20336;-33.424;-70.638;2023-08-17T10:02:57;26.17;;;15.03;;
34060;SDS011;20336;-33.424;-70.638;2023-08-17T10:05:26;25.63;;;14.45;;
34060;SDS011;20336;-33.424;-70.638;2023-08-17T10:07:57;24.23;;;14.82;;
34060;SDS011;20336;-33.424;-70.638;2023-08-17T10:10:27;21.27;;;13.60;;
34060;SDS011;20336;-33.424;-70.638;2023-08-17T10:15:44;23.05;;;14.15;;
34060;SDS011;20336;-33.424;-70.638;2023-08-17T10:20:54;35.88;;;15.98;;
34060;SDS011;20336;-33.424;-70.638;2023-08-17T10:23:27;27.70;;;14.93;;
34060;SDS011;20336;-33.424;-70.638;2023-08-17T10:25:55;25.20;;;13.63;;
34060;SDS011;20336;-33.424;-70.638;2023-08-17T10:28:22;24.35;;;13.52;;
34060;SDS011;20336;-33.424;-70.638;2023-08-17T10:30:50;20.30;;;13.30;;
34060;SDS011;20336;-33.424;-70.638;2023-08-17T10:33:17;23.20;;;13.98;;
34060;SDS011;20336;-33.424;-70.638;2023-08-17T10:35:45;19.30;;;12.70;;
34060;SDS011;20336;-33.424;-70.638;2023-08-17T10:38:13;20.95;;;12.63;;
34060;SDS011;20336;-33.424;-70.638;2023-08-17T10:40:43;23.15;;;13.00;;
34060;SDS011;20336;-33.424;-70.638;2023-08-17T10:43:10;23.25;;;13.55;;
34060;SDS011;20336;-33.424;-70.638;2023-08-17T10:45:38;22.97;;;13.17;;
34060;SDS011;20336;-33.424;-70.638;2023-08-17T10:50:31;19.58;;;12.23;;
34060;SDS011;20336;-33.424;-70.638;2023-08-17T10:53:03;26.40;;;12.65;;
34060;SDS011;20336;-33.424;-70.638;2023-08-17T10:55:38;21.83;;;12.90;;
34060;SDS011;20336;-33.424;-70.638;2023-08-17T10:58:07;21.95;;;12.45;;
34060;SDS011;20336;-33.424;-70.638;2023-08-17T11:00:35;24.10;;;12.70;;
34060;SDS011;20336;-33.424;-70.638;2023-08-17T11:03:03;21.73;;;13.13;;
34060;SDS011;20336;-33.424;-70.638;2023-08-17T11:11:02;27.13;;;15.33;;
34060;SDS011;20336;-33.424;-70.638;2023-08-17T11:13:31;25.43;;;15.47;;
34060;SDS011;20336;-33.424;-70.638;2023-08-17T11:16:02;27.77;;;16.60;;
34060;SDS011;20336;-33.424;-70.638;2023-08-17T11:18:30;30.33;;;17.90;;
34060;SDS011;20336;-33.424;-70.638;2023-08-17T11:21:01;28.33;;;17.67;;
34060;SDS011;20336;-33.424;-70.638;2023-08-17T11:23:29;32.30;;;17.43;;
34060;SDS011;20336;-33.424;-70.638;2023-08-17T11:25:57;29.43;;;17.57;;
34060;SDS011;20336;-33.424;-70.638;2023-08-17T11:28:25;26.27;;;17.07;;
34060;SDS011;20336;-33.424;-70.638;2023-08-17T11:30:58;26.70;;;17.03;;
34060;SDS011;20336;-33.424;-70.638;2023-08-17T11:33:26;27.93;;;17.20;;
34060;SDS011;20336;-33.424;-70.638;2023-08-17T11:35:57;32.50;;;18.53;;
34060;SDS011;20336;-33.424;-70.638;2023-08-17T11:38:30;30.07;;;18.07;;
34060;SDS011;20336;-33.424;-70.638;2023-08-17T11:41:00;31.27;;;18.57;;
34060;SDS011;20336;-33.424;-70.638;2023-08-17T11:43:32;35.20;;;19.73;;
34060;SDS011;20336;-33.424;-70.638;2023-08-17T11:45:59;30.73;;;18.03;;
34060;SDS011;20336;-33.424;-70.638;2023-08-17T11:48:27;29.83;;;18.47;;
34060;SDS011;20336;-33.424;-70.638;2023-08-17T11:50:54;33.90;;;18.83;;
34060;SDS011;20336;-33.424;-70.638;2023-08-17T11:53:21;34.10;;;19.27;;
34060;SDS011;20336;-33.424;-70.638;2023-08-17T11:55:48;31.93;;;18.23;;
34060;SDS011;20336;-33.424;-70.638;2023-08-17T11:58:16;27.20;;;17.93;;
34060;SDS011;20336;-33.424;-70.638;2023-08-17T12:00:43;27.73;;;17.33;;
34060;SDS011;20336;-33.424;-70.638;2023-08-17T12:03:14;32.77;;;16.90;;
34060;SDS011;20336;-33.424;-70.638;2023-08-17T12:05:42;28.90;;;17.80;;
34060;SDS011;20336;-33.424;-70.638;2023-08-17T12:08:11;27.87;;;17.50;;
34060;SDS011;20336;-33.424;-70.638;2023-08-17T12:10:40;30.30;;;18.80;;
34060;SDS011;20336;-33.424;-70.638;2023-08-17T12:13:10;30.47;;;17.63;;
34060;SDS011;20336;-33.424;-70.638;2023-08-17T12:15:38;31.98;;;18.40;;
34060;SDS011;20336;-33.424;-70.638;2023-08-17T12:18:05;29.63;;;17.95;;
34060;SDS011;20336;-33.424;-70.638;2023-08-17T12:20:32;28.33;;;17.23;;
34060;SDS011;20336;-33.424;-70.638;2023-08-17T12:23:02;31.05;;;16.38;;
34060;SDS011;20336;-33.424;-70.638;2023-08-17T12:25:29;24.08;;;16.08;;
34060;SDS011;20336;-33.424;-70.638;2023-08-17T12:27:59;28.35;;;17.55;;
34060;SDS011;20336;-33.424;-70.638;2023-08-17T12:30:30;28.38;;;17.63;;
34060;SDS011;20336;-33.424;-70.638;2023-08-17T12:32:58;36.50;;;18.52;;
34060;SDS011;20336;-33.424;-70.638;2023-08-17T12:35:25;28.00;;;16.80;;
34060;SDS011;20336;-33.424;-70.638;2023-08-17T12:37:53;26.80;;;15.70;;
34060;SDS011;20336;-33.424;-70.638;2023-08-17T12:40:21;29.55;;;16.13;;
34060;SDS011;20336;-33.424;-70.638;2023-08-17T12:42:48;24.15;;;14.90;;
34060;SDS011;20336;-33.424;-70.638;2023-08-17T12:45:15;29.27;;;15.85;;
34060;SDS011;20336;-33.424;-70.638;2023-08-17T12:47:42;27.38;;;15.43;;
34060;SDS011;20336;-33.424;-70.638;2023-08-17T12:50:09;25.33;;;14.27;;
34060;SDS011;20336;-33.424;-70.638;2023-08-17T12:52:36;26.75;;;14.93;;
34060;SDS011;20336;-33.424;-70.638;2023-08-17T12:55:03;28.00;;;13.93;;
34060;SDS011;20336;-33.424;-70.638;2023-08-17T12:57:31;26.17;;;15.30;;
34060;SDS011;20336;-33.424;-70.638;2023-08-17T12:59:58;25.10;;;14.43;;
34060;SDS011;20336;-33.424;-70.638;2023-08-17T13:02:24;29.70;;;16.80;;
34060;SDS011;20336;-33.424;-70.638;2023-08-17T13:04:51;23.42;;;15.05;;
34060;SDS011;20336;-33.424;-70.638;2023-08-17T13:07:18;29.92;;;15.23;;
34060;SDS011;20336;-33.424;-70.638;2023-08-17T13:09:45;32.97;;;15.98;;
34060;SDS011;20336;-33.424;-70.638;2023-08-17T13:12:12;26.98;;;15.25;;
34060;SDS011;20336;-33.424;-70.638;2023-08-17T13:14:39;26.05;;;15.65;;
34060;SDS011;20336;-33.424;-70.638;2023-08-17T13:17:06;30.42;;;15.90;;
34060;SDS011;20336;-33.424;-70.638;2023-08-17T13:19:33;27.95;;;15.43;;
34060;SDS011;20336;-33.424;-70.638;2023-08-17T13:22:01;30.98;;;16.52;;
34060;SDS011;20336;-33.424;-70.638;2023-08-17T13:24:28;33.00;;;16.98;;
34060;SDS011;20336;-33.424;-70.638;2023-08-17T13:26:55;30.10;;;17.35;;
34060;SDS011;20336;-33.424;-70.638;2023-08-17T13:29:22;27.77;;;16.60;;
34060;SDS011;20336;-33.424;-70.638;2023-08-17T13:31:51;29.27;;;17.27;;
34060;SDS011;20336;-33.424;-70.638;2023-08-17T13:34:17;29.85;;;16.95;;
34060;SDS011;20336;-33.424;-70.638;2023-08-17T13:36:44;30.55;;;17.60;;
34060;SDS011;20336;-33.424;-70.638;2023-08-17T13:39:11;32.05;;;16.85;;
34060;SDS011;20336;-33.424;-70.638;2023-08-17T13:41:38;31.55;;;16.75;;
34060;SDS011;20336;-33.424;-70.638;2023-08-17T13:44:06;31.80;;;17.00;;
34060;SDS011;20336;-33.424;-70.638;2023-08-17T13:46:32;26.50;;;16.42;;
34060;SDS011;20336;-33.424;-70.638;2023-08-17T13:48:59;32.95;;;16.13;;
34060;SDS011;20336;-33.424;-70.638;2023-08-17T13:51:26;28.92;;;16.08;;
34060;SDS011;20336;-33.424;-70.638;2023-08-17T13:53:53;30.52;;;17.02;;
34060;SDS011;20336;-33.424;-70.638;2023-08-17T13:56:20;29.73;;;16.83;;
34060;SDS011;20336;-33.424;-70.638;2023-08-17T13:58:47;29.50;;;17.17;;
34060;SDS011;20336;-33.424;-70.638;2023-08-17T14:01:14;26.70;;;16.23;;
34060;SDS011;20336;-33.424;-70.638;2023-08-17T14:03:42;32.72;;;17.45;;
34060;SDS011;20336;-33.424;-70.638;2023-08-17T14:06:09;23.70;;;15.68;;